Time;durP1;ratioP1;P1;durP2;ratioP2;P2;SDS_P1;SDS_P2;PMS_P1;PMS_P2;Temp;Humidity;BMP_temperature;BMP_pressure;BME280_temperature;BME280_humidity;BME280_pressure;Samples;Min_cycle;Max_cycle;Signal;HPM_P1;HPM_P2
2022/02/26 00:02:02;;;;;;;14.82;3.40;;;;;;;1.50;100.00;103130.31;5070617;28;20602;-47
2022/02/26 00:04:33;;;;;;;14.63;3.95;;;;;;;1.52;100.00;103140.72;5073433;28;20053;-46
2022/02/26 00:07:04;;;;;;;17.52;3.53;;;;;;;1.46;100.00;103146.72;5075434;28;20117;-45
2022/02/26 00:09:32;;;;;;;13.60;3.17;;;;;;;1.47;100.00;103138.09;5075641;28;20048;-56
2022/02/26 00:12:00;;;;;;;19.83;3.92;;;;;;;1.38;100.00;103132.78;5074236;28;20059;-56
2022/02/26 00:14:29;;;;;;;17.83;3.90;;;;;;;1.39;100.00;103142.31;5069745;28;20053;-54
2022/02/26 00:16:58;;;;;;;12.10;3.20;;;;;;;1.32;100.00;103137.91;5073563;28;20060;-46
2022/02/26 00:19:26;;;;;;;19.80;4.07;;;;;;;1.30;100.00;103139.63;5075376;28;20078;-46
2022/02/26 00:21:54;;;;;;;18.75;3.75;;;;;;;1.25;100.00;103141.28;5075651;28;20044;-55
2022/02/26 00:24:23;;;;;;;19.20;4.00;;;;;;;1.21;100.00;103149.91;5073933;28;20052;-55
2022/02/26 00:26:52;;;;;;;16.80;4.03;;;;;;;1.17;100.00;103155.06;5069794;28;20103;-46
2022/02/26 00:29:20;;;;;;;17.30;4.05;;;;;;;1.16;100.00;103145.53;5073333;28;20048;-46
2022/02/26 00:31:49;;;;;;;14.48;3.65;;;;;;;1.15;100.00;103156.75;5070863;28;20059;-47
2022/02/26 00:34:17;;;;;;;16.05;3.78;;;;;;;1.08;100.00;103165.31;5071024;28;20045;-48
2022/02/26 00:36:46;;;;;;;13.95;3.10;;;;;;;1.03;100.00;103172.16;5074108;28;20044;-48
2022/02/26 00:39:14;;;;;;;16.50;3.03;;;;;;;1.06;100.00;103167.00;5071035;28;20048;-45
2022/02/26 00:41:43;;;;;;;20.30;3.78;;;;;;;1.07;100.00;103175.66;5073053;28;20602;-46
2022/02/26 00:44:11;;;;;;;19.45;4.57;;;;;;;1.04;100.00;103178.19;5074863;28;20072;-48
2022/02/26 00:46:40;;;;;;;15.45;3.65;;;;;;;1.01;100.00;103179.06;5074231;28;20094;-45
2022/02/26 00:51:53;;;;;;;21.67;4.40;;;;;;;0.95;100.00;103181.56;5070156;28;20402;-50
2022/02/26 00:54:21;;;;;;;18.13;5.22;;;;;;;1.07;100.00;103186.91;5072876;28;20045;-46
2022/02/26 00:56:53;;;;;;;13.32;3.90;;;;;;;1.01;100.00;103184.25;5074630;28;20155;-46
2022/02/26 00:59:21;;;;;;;16.70;3.45;;;;;;;0.95;100.00;103187.59;5074760;28;20052;-54
2022/02/26 01:01:51;;;;;;;12.35;3.75;;;;;;;0.89;100.00;103189.28;5074763;28;20071;-45
2022/02/26 01:04:19;;;;;;;15.13;4.00;;;;;;;0.96;100.00;103191.09;5074949;28;20511;-54
2022/02/26 01:06:47;;;;;;;15.55;3.63;;;;;;;0.83;100.00;103196.09;5074622;28;20484;-54
2022/02/26 01:09:16;;;;;;;13.60;4.35;;;;;;;0.77;100.00;103206.38;5074547;28;20041;-58
2022/02/26 01:11:44;;;;;;;16.63;4.47;;;;;;;0.66;100.00;103203.63;5074245;28;20479;-55
2022/02/26 01:14:13;;;;;;;10.98;4.00;;;;;;;0.63;100.00;103208.78;5074170;28;20083;-45
2022/02/26 01:16:41;;;;;;;13.32;4.05;;;;;;;0.60;100.00;103200.97;5072765;28;20048;-45
2022/02/26 01:19:10;;;;;;;16.75;4.45;;;;;;;0.57;100.00;103200.91;5071849;28;20644;-45
2022/02/26 01:21:38;;;;;;;14.18;4.00;;;;;;;0.50;100.00;103202.56;5070019;28;20381;-52
2022/02/26 01:24:06;;;;;;;18.63;4.25;;;;;;;0.52;100.00;103212.06;5073375;28;20060;-43
2022/02/26 01:26:34;;;;;;;12.13;3.78;;;;;;;0.54;100.00;103211.22;5070067;28;20045;-42
2022/02/26 01:29:03;;;;;;;14.43;3.92;;;;;;;0.50;100.00;103210.34;5070417;28;20368;-44
2022/02/26 01:31:33;;;;;;;11.77;3.75;;;;;;;0.39;100.00;103211.88;5074024;28;20071;-55
2022/02/26 01:34:01;;;;;;;20.00;4.32;;;;;;;0.38;100.00;103215.31;5074275;28;20052;-55
2022/02/26 01:36:30;;;;;;;14.38;4.38;;;;;;;0.37;100.00;103221.34;5073930;28;20059;-55
2022/02/26 01:38:59;;;;;;;11.88;3.58;;;;;;;0.39;100.00;103222.22;5074197;28;20075;-46
2022/02/26 01:41:30;;;;;;;11.15;3.38;;;;;;;0.37;100.00;103217.88;5074034;28;20499;-44
2022/02/26 01:44:00;;;;;;;15.98;4.13;;;;;;;0.35;100.00;103217.00;5073239;28;20048;-45
2022/02/26 01:46:36;;;;;;;19.58;5.28;;;;;;;0.31;100.00;103209.19;5073386;28;20036;-55
2022/02/26 01:49:06;;;;;;;16.35;4.32;;;;;;;0.30;100.00;103214.31;5069646;28;20457;-56
2022/02/26 01:51:34;;;;;;;15.10;4.68;;;;;;;0.24;100.00;103228.03;5069585;28;20415;-47
2022/02/26 01:54:03;;;;;;;16.92;4.15;;;;;;;0.23;100.00;103228.91;5072264;28;20056;-54
2022/02/26 01:56:33;;;;;;;14.65;4.47;;;;;;;0.20;100.00;103218.47;5073473;28;20040;-56
2022/02/26 01:59:01;;;;;;;12.55;3.80;;;;;;;0.16;100.00;103222.75;5073396;28;20044;-53
2022/02/26 02:01:29;;;;;;;15.57;4.20;;;;;;;0.19;100.00;103211.56;5073514;28;20143;-55
2022/02/26 02:03:58;;;;;;;19.60;4.50;;;;;;;0.16;100.00;103217.56;5067781;28;20138;-55
2022/02/26 02:06:27;;;;;;;18.05;4.15;;;;;;;0.15;100.00;103228.78;5069231;28;20036;-47
2022/02/26 02:08:55;;;;;;;14.77;4.10;;;;;;;0.14;100.00;103232.19;5073174;28;20388;-46
2022/02/26 02:11:23;;;;;;;15.00;3.47;;;;;;;0.09;100.00;103227.78;5073215;28;20438;-45
2022/02/26 02:13:51;;;;;;;16.23;4.15;;;;;;;0.07;100.00;103232.06;5073291;28;20442;-55
2022/02/26 02:16:19;;;;;;;13.38;3.95;;;;;;;0.00;100.00;103233.69;5072962;28;20044;-56
2022/02/26 02:18:47;;;;;;;15.73;4.60;;;;;;;-0.02;100.00;103233.66;5072876;28;20052;-55
2022/02/26 02:21:17;;;;;;;14.15;3.83;;;;;;;-0.10;100.00;103229.19;5072545;28;20052;-56
2022/02/26 02:23:47;;;;;;;13.52;3.47;;;;;;;-0.08;100.00;103233.56;5073010;28;20058;-45
2022/02/26 02:26:17;;;;;;;15.55;3.97;;;;;;;-0.12;100.00;103225.69;5069736;28;20434;-46
2022/02/26 02:28:45;;;;;;;13.32;4.50;;;;;;;-0.09;100.00;103233.53;5068323;28;20059;-44
2022/02/26 02:31:13;;;;;;;13.60;3.80;;;;;;;-0.08;100.00;103233.56;5072094;28;20048;-46
2022/02/26 02:33:42;;;;;;;17.23;4.13;;;;;;;-0.21;100.00;103224.69;5072868;28;20080;-48
2022/02/26 02:36:10;;;;;;;14.85;3.97;;;;;;;-0.26;100.00;103217.69;5072592;28;20110;-47
2022/02/26 02:38:38;;;;;;;13.45;4.10;;;;;;;-0.21;100.00;103229.84;5072450;28;20064;-45
2022/02/26 02:41:08;;;;;;;17.85;4.05;;;;;;;-0.27;100.00;103223.69;5072621;28;20063;-47
2022/02/26 02:43:36;;;;;;;11.45;4.22;;;;;;;-0.28;100.00;103228.00;5067322;28;20083;-44
2022/02/26 02:46:04;;;;;;;14.05;4.75;;;;;;;-0.30;100.00;103234.88;5068399;28;20048;-54
2022/02/26 02:48:33;;;;;;;16.70;4.47;;;;;;;-0.31;100.00;103227.97;5072551;28;20048;-55
2022/02/26 02:51:01;;;;;;;24.67;4.70;;;;;;;-0.34;100.00;103233.09;5069941;28;20056;-55
2022/02/26 02:53:29;;;;;;;14.23;4.32;;;;;;;-0.40;100.00;103243.31;5068324;28;20549;-55
2022/02/26 02:55:57;;;;;;;15.23;4.85;;;;;;;-0.39;100.00;103240.75;5071163;28;20044;-46
2022/02/26 02:58:28;;;;;;;17.85;4.80;;;;;;;-0.39;100.00;103245.06;5072018;28;20053;-46
2022/02/26 03:00:57;;;;;;;16.75;5.03;;;;;;;-0.42;100.00;103239.84;5071931;28;20110;-55
2022/02/26 03:03:27;;;;;;;13.77;4.22;;;;;;;-0.41;100.00;103236.38;5072199;28;20143;-55
2022/02/26 03:05:55;;;;;;;14.60;5.15;;;;;;;-0.41;100.00;103223.44;5072039;28;20056;-55
2022/02/26 03:08:24;;;;;;;17.02;4.80;;;;;;;-0.34;100.00;103230.50;5071709;28;20411;-55
2022/02/26 03:10:53;;;;;;;15.15;4.70;;;;;;;-0.35;100.00;103233.94;5072193;28;20530;-54
2022/02/26 03:13:22;;;;;;;12.25;4.85;;;;;;;-0.43;100.00;103230.31;5072071;28;20052;-54
2022/02/26 03:15:53;;;;;;;16.92;5.38;;;;;;;-0.44;100.00;103221.69;5072515;28;20048;-52
2022/02/26 03:18:24;;;;;;;12.38;4.78;;;;;;;-0.38;100.00;103215.78;5068304;28;20044;-56
2022/02/26 03:20:52;;;;;;;15.55;5.25;;;;;;;-0.43;100.00;103218.25;5068170;28;20054;-55
2022/02/26 03:23:20;;;;;;;16.73;5.78;;;;;;;-0.46;100.00;103225.06;5070636;28;20088;-56
2022/02/26 03:25:48;;;;;;;13.25;5.25;;;;;;;-0.47;100.00;103219.03;5072238;28;20094;-43
2022/02/26 03:28:17;;;;;;;13.00;4.72;;;;;;;-0.53;100.00;103218.94;5068569;28;20052;-54
2022/02/26 03:30:45;;;;;;;18.83;5.07;;;;;;;-0.46;100.00;103219.91;5067784;28;20049;-55
2022/02/26 03:33:14;;;;;;;16.63;5.38;;;;;;;-0.51;100.00;103228.44;5074770;28;20056;-55
2022/02/26 03:35:43;;;;;;;16.52;5.00;;;;;;;-0.51;100.00;103233.59;5075656;28;20055;-53
2022/02/26 03:38:11;;;;;;;15.02;6.20;;;;;;;-0.47;100.00;103238.88;5075612;28;20067;-53
2022/02/26 03:40:40;;;;;;;12.75;4.80;;;;;;;-0.59;100.00;103245.53;5076009;28;20036;-55
2022/02/26 03:43:08;;;;;;;16.83;5.65;;;;;;;-0.59;100.00;103244.66;5075922;28;20090;-45
2022/02/26 03:45:37;;;;;;;20.63;5.70;;;;;;;-0.61;100.00;103254.97;5075825;28;20063;-43
2022/02/26 03:48:06;;;;;;;15.30;5.07;;;;;;;-0.69;100.00;103249.63;5075703;28;20040;-55
2022/02/26 03:50:35;;;;;;;16.75;5.05;;;;;;;-0.80;100.00;103245.13;5074556;28;20086;-55
2022/02/26 03:53:04;;;;;;;11.98;5.28;;;;;;;-0.83;100.00;103261.41;5075789;28;20052;-45
2022/02/26 03:55:34;;;;;;;19.10;6.47;;;;;;;-0.79;100.00;103257.16;5075706;28;20060;-54
2022/02/26 03:58:02;;;;;;;16.15;5.22;;;;;;;-0.78;100.00;103264.94;5075623;28;20115;-43
2022/02/26 04:00:30;;;;;;;15.90;5.57;;;;;;;-0.83;100.00;103274.34;5075669;28;20114;-48
2022/02/26 04:02:58;;;;;;;16.25;5.53;;;;;;;-0.88;100.00;103292.31;5070723;28;20133;-55
2022/02/26 04:05:26;;;;;;;15.32;5.22;;;;;;;-0.95;100.00;103287.84;5072990;28;20052;-45
2022/02/26 04:07:56;;;;;;;17.25;6.20;;;;;;;-0.95;100.00;103292.16;5072840;28;20045;-55
2022/02/26 04:10:24;;;;;;;13.23;5.85;;;;;;;-0.90;100.00;103304.34;5072078;28;20412;-55
2022/02/26 04:12:52;;;;;;;13.95;6.10;;;;;;;-0.93;100.00;103306.84;5074273;28;20068;-53
2022/02/26 04:15:21;;;;;;;17.05;5.55;;;;;;;-0.95;100.00;103308.53;5075215;28;20045;-51
2022/02/26 04:17:49;;;;;;;13.35;5.57;;;;;;;-1.01;100.00;103308.38;5073827;28;20037;-54
2022/02/26 04:20:17;;;;;;;18.25;6.18;;;;;;;-1.02;100.00;103327.31;5070599;28;20052;-44
2022/02/26 04:22:48;;;;;;;18.27;5.97;;;;;;;-1.03;100.00;103329.00;5073765;28;20522;-54
2022/02/26 04:25:18;;;;;;;22.55;6.97;;;;;;;-1.06;100.00;103333.25;5075115;28;20072;-46
2022/02/26 04:27:46;;;;;;;13.48;6.10;;;;;;;-1.06;100.00;103341.00;5074983;28;20045;-53
2022/02/26 04:30:14;;;;;;;17.15;6.60;;;;;;;-0.97;100.00;103345.50;5075395;28;20045;-54
2022/02/26 04:32:42;;;;;;;15.20;5.82;;;;;;;-0.98;100.00;103347.22;5075200;28;20047;-44
2022/02/26 04:35:11;;;;;;;16.40;6.40;;;;;;;-1.02;100.00;103350.56;5074997;28;20075;-44
2022/02/26 04:37:39;;;;;;;13.88;6.07;;;;;;;-0.96;100.00;103348.13;5074902;28;20056;-44
2022/02/26 04:40:09;;;;;;;13.30;6.53;;;;;;;-1.00;100.00;103356.63;5074909;28;20049;-55
2022/02/26 04:42:39;;;;;;;16.65;5.93;;;;;;;-1.04;100.00;103365.16;5074512;28;20055;-44
2022/02/26 04:45:08;;;;;;;15.00;6.35;;;;;;;-1.06;100.00;103362.53;5075065;28;20040;-44
2022/02/26 04:47:37;;;;;;;19.05;7.03;;;;;;;-1.05;100.00;103358.22;5075178;28;20086;-54
2022/02/26 04:50:07;;;;;;;15.90;7.45;;;;;;;-1.05;100.00;103368.56;5073494;28;20143;-45
2022/02/26 04:52:35;;;;;;;21.98;7.90;;;;;;;-1.03;100.00;103372.94;5074575;28;20049;-54
2022/02/26 04:55:04;;;;;;;23.73;9.25;;;;;;;-1.00;100.00;103364.38;5074621;28;20078;-43
2022/02/26 04:57:33;;;;;;;22.40;9.63;;;;;;;-0.97;100.00;103367.03;5073718;28;20047;-46
2022/02/26 05:00:03;;;;;;;18.15;7.93;;;;;;;-0.97;100.00;103345.50;5070626;28;20037;-42
2022/02/26 05:02:31;;;;;;;17.88;7.85;;;;;;;-0.96;100.00;103352.41;5071223;28;20057;-43
2022/02/26 05:05:00;;;;;;;21.52;8.13;;;;;;;-0.93;100.00;103355.06;5071276;28;20056;-45
2022/02/26 05:07:28;;;;;;;21.45;8.50;;;;;;;-0.93;100.00;103355.94;5070627;28;20533;-45
2022/02/26 05:09:57;;;;;;;19.23;9.20;;;;;;;-0.84;100.00;103357.00;5074353;28;20456;-44
2022/02/26 05:12:25;;;;;;;25.80;11.23;;;;;;;-0.84;100.00;103349.25;5074306;28;20102;-43
2022/02/26 05:14:54;;;;;;;31.80;9.20;;;;;;;-0.89;100.00;103355.16;5074353;28;20522;-44
2022/02/26 05:17:23;;;;;;;21.60;9.07;;;;;;;-0.88;100.00;103368.97;5073674;28;20094;-46
2022/02/26 05:19:52;;;;;;;18.90;8.30;;;;;;;-0.90;100.00;103361.19;5074159;28;20491;-43
2022/02/26 05:22:20;;;;;;;24.05;9.35;;;;;;;-0.87;100.00;103370.72;5074221;28;20071;-46
2022/02/26 05:24:48;;;;;;;23.42;9.30;;;;;;;-0.89;100.00;103372.38;5074237;28;20048;-45
2022/02/26 05:27:16;;;;;;;24.17;9.65;;;;;;;-0.88;100.00;103359.50;5073959;28;20056;-47
2022/02/26 05:29:44;;;;;;;22.45;9.20;;;;;;;-0.84;100.00;103367.34;5073920;28;20440;-47
2022/02/26 05:32:12;;;;;;;18.92;8.05;;;;;;;-0.87;100.00;103381.06;5073955;28;20507;-44
2022/02/26 05:34:42;;;;;;;25.48;9.82;;;;;;;-0.81;100.00;103382.91;5074098;28;20071;-54
2022/02/26 05:37:10;;;;;;;17.73;8.15;;;;;;;-0.82;100.00;103381.16;5073850;28;20522;-55
2022/02/26 05:39:38;;;;;;;31.02;9.55;;;;;;;-0.79;100.00;103378.63;5073690;28;20044;-42
2022/02/26 05:42:07;;;;;;;21.75;9.13;;;;;;;-0.86;100.00;103386.25;5073360;28;20533;-56
2022/02/26 05:44:35;;;;;;;21.58;9.02;;;;;;;-0.84;100.00;103398.34;5073239;28;20051;-56
2022/02/26 05:47:05;;;;;;;24.45;10.23;;;;;;;-0.84;100.00;103403.53;5073569;28;20057;-43
2022/02/26 05:49:33;;;;;;;30.30;9.75;;;;;;;-0.84;100.00;103394.03;5073634;28;20495;-43
2022/02/26 05:52:02;;;;;;;24.95;8.80;;;;;;;-0.86;100.00;103393.13;5072921;28;20052;-54
2022/02/26 05:54:30;;;;;;;29.40;10.35;;;;;;;-0.86;100.00;103396.59;5072902;28;20153;-54
2022/02/26 05:56:59;;;;;;;25.80;9.55;;;;;;;-0.87;100.00;103409.47;5073389;28;20052;-56
2022/02/26 05:59:27;;;;;;;27.15;10.35;;;;;;;-0.87;100.00;103417.22;5073204;28;20158;-55
2022/02/26 06:01:55;;;;;;;36.65;11.90;;;;;;;-0.90;100.00;103410.28;5073286;28;20052;-52
2022/02/26 06:04:23;;;;;;;28.80;10.90;;;;;;;-0.88;100.00;103415.47;5073294;28;20048;-44
2022/02/26 06:06:51;;;;;;;22.52;11.07;;;;;;;-0.85;100.00;103415.53;5073245;28;20063;-54
2022/02/26 06:09:21;;;;;;;22.52;10.57;;;;;;;-0.83;100.00;103421.63;5071688;28;20056;-45
2022/02/26 06:11:49;;;;;;;22.27;10.35;;;;;;;-0.82;100.00;103432.84;5073020;28;20049;-56
2022/02/26 06:14:19;;;;;;;44.72;11.13;;;;;;;-0.78;100.00;103435.50;5072948;28;20049;-44
2022/02/26 06:16:48;;;;;;;16.80;9.50;;;;;;;-0.84;100.00;103434.53;5073049;28;20033;-43
2022/02/26 06:19:16;;;;;;;17.40;10.85;;;;;;;-0.86;100.00;103427.59;5072738;28;20499;-46
2022/02/26 06:21:46;;;;;;;18.90;10.10;;;;;;;-0.83;100.00;103446.59;5073076;28;20036;-54
2022/02/26 06:24:14;;;;;;;19.60;10.75;;;;;;;-0.84;100.00;103439.69;5072746;28;20053;-55
2022/02/26 06:26:44;;;;;;;18.75;9.98;;;;;;;-0.83;100.00;103441.41;5072901;28;20098;-46
2022/02/26 06:29:12;;;;;;;21.05;10.00;;;;;;;-0.83;100.00;103442.31;5071236;28;20059;-44
2022/02/26 06:31:40;;;;;;;16.58;10.18;;;;;;;-0.79;100.00;103440.66;5072579;28;20506;-44
2022/02/26 06:34:08;;;;;;;22.23;10.25;;;;;;;-0.78;100.00;103451.03;5072344;28;20098;-44
2022/02/26 06:36:38;;;;;;;14.75;9.82;;;;;;;-0.79;100.00;103459.63;5072571;28;20051;-46
2022/02/26 06:39:07;;;;;;;13.80;9.65;;;;;;;-0.79;100.00;103448.41;5072185;28;20053;-43
2022/02/26 06:41:35;;;;;;;20.55;10.77;;;;;;;-0.77;100.00;103444.16;5072171;28;20507;-52
2022/02/26 06:44:06;;;;;;;26.20;11.18;;;;;;;-0.78;100.00;103450.16;5072313;28;20054;-43
2022/02/26 06:46:37;;;;;;;30.58;11.02;;;;;;;-0.74;100.00;103458.00;5072537;28;20051;-45
2022/02/26 06:49:06;;;;;;;17.17;10.52;;;;;;;-0.73;100.00;103461.50;5072222;28;20080;-54
2022/02/26 06:51:34;;;;;;;12.98;10.43;;;;;;;-0.66;100.00;103463.38;5071747;28;20098;-53
2022/02/26 06:54:03;;;;;;;18.60;10.68;;;;;;;-0.63;100.00;103453.09;5072247;28;20066;-55
2022/02/26 06:56:33;;;;;;;26.73;12.07;;;;;;;-0.64;100.00;103461.72;5072197;28;20048;-53
2022/02/26 06:59:01;;;;;;;21.27;11.57;;;;;;;-0.61;100.00;103458.34;5071018;28;20048;-52
2022/02/26 07:01:30;;;;;;;21.10;11.40;;;;;;;-0.62;100.00;103464.34;5070890;28;20044;-45
2022/02/26 07:03:59;;;;;;;24.98;11.05;;;;;;;-0.52;100.00;103472.34;5072260;28;20053;-44
2022/02/26 07:06:27;;;;;;;24.67;10.35;;;;;;;-0.59;100.00;103474.75;5072040;28;20049;-46
2022/02/26 07:08:55;;;;;;;20.55;11.50;;;;;;;-0.57;100.00;103473.06;5071970;28;20056;-43
2022/02/26 07:11:23;;;;;;;19.52;11.10;;;;;;;-0.46;100.00;103465.53;5072051;28;20127;-56
2022/02/26 07:13:52;;;;;;;17.88;10.93;;;;;;;-0.44;100.00;103472.50;5072120;28;20048;-45
2022/02/26 07:16:20;;;;;;;30.83;11.90;;;;;;;-0.43;100.00;103478.56;5070586;28;20056;-55
2022/02/26 07:18:49;;;;;;;19.40;12.13;;;;;;;-0.41;100.00;103485.53;5072096;28;20086;-45
2022/02/26 07:21:17;;;;;;;21.52;12.02;;;;;;;-0.41;100.00;103476.88;5072210;28;20044;-45
2022/02/26 07:23:45;;;;;;;21.20;11.23;;;;;;;-0.40;100.00;103486.38;5072091;28;20155;-44
2022/02/26 07:26:13;;;;;;;15.75;11.68;;;;;;;-0.41;100.00;103490.69;5071860;28;20063;-47
2022/02/26 07:28:41;;;;;;;20.92;12.07;;;;;;;-0.30;100.00;103496.13;5072409;28;20040;-43
2022/02/26 07:31:09;;;;;;;31.60;14.57;;;;;;;-0.24;100.00;103495.38;5071699;28;20044;-43
2022/02/26 07:33:37;;;;;;;18.15;11.65;;;;;;;-0.19;100.00;103489.47;5072028;28;20184;-45
2022/02/26 07:36:08;;;;;;;16.92;11.77;;;;;;;-0.17;100.00;103492.06;5071903;28;20072;-44
2022/02/26 07:38:36;;;;;;;30.25;11.88;;;;;;;-0.22;100.00;103501.44;5071945;28;20049;-56
2022/02/26 07:41:05;;;;;;;20.48;12.05;;;;;;;-0.17;100.00;103495.53;5071679;28;20044;-45
2022/02/26 07:43:33;;;;;;;22.58;11.52;;;;;;;0.03;100.00;103481.28;5071592;28;20059;-48
2022/02/26 07:46:01;;;;;;;19.38;12.07;;;;;;;0.10;100.00;103481.44;5071604;28;20499;-55
2022/02/26 07:48:29;;;;;;;23.45;11.82;;;;;;;0.21;100.00;103493.75;5071363;28;20055;-54
2022/02/26 07:50:57;;;;;;;24.70;11.63;;;;;;;0.09;100.00;103508.16;5071157;28;20565;-53
2022/02/26 07:53:27;;;;;;;27.92;11.75;;;;;;;0.15;100.00;103503.13;5071372;28;20052;-56
2022/02/26 07:55:55;;;;;;;17.20;11.32;;;;;;;0.27;100.00;103496.44;5071732;28;20557;-45
2022/02/26 07:58:23;;;;;;;24.77;11.75;;;;;;;0.40;100.00;103503.63;5071968;28;20056;-54
2022/02/26 08:00:51;;;;;;;21.02;11.55;;;;;;;0.32;100.00;103510.34;5072000;28;20090;-54
2022/02/26 08:03:20;;;;;;;26.60;12.45;;;;;;;0.38;100.00;103509.59;5071850;28;20051;-55
2022/02/26 08:05:48;;;;;;;24.05;12.07;;;;;;;0.37;100.00;103513.94;5071629;28;20079;-56
2022/02/26 08:08:17;;;;;;;19.25;13.15;;;;;;;0.35;100.00;103510.41;5071215;28;20051;-51
2022/02/26 08:10:46;;;;;;;18.75;12.57;;;;;;;0.58;100.00;103515.19;5071506;28;20487;-55
2022/02/26 08:13:14;;;;;;;18.65;13.15;;;;;;;0.83;100.00;103504.44;5071789;28;20098;-53
2022/02/26 08:15:43;;;;;;;13.75;10.85;;;;;;;0.92;100.00;103514.09;5071888;28;20505;-54
2022/02/26 08:18:13;;;;;;;18.92;11.77;;;;;;;0.73;100.00;103518.06;5073208;28;20402;-54
2022/02/26 08:20:41;;;;;;;15.55;11.30;;;;;;;0.88;100.00;103514.03;5075560;28;20041;-52
2022/02/26 08:23:10;;;;;;;14.98;11.70;;;;;;;0.86;100.00;103511.41;5075470;28;20072;-53
2022/02/26 08:25:38;;;;;;;20.00;12.18;;;;;;;1.01;100.00;103523.78;5074240;28;20056;-51
2022/02/26 08:28:08;;;;;;;17.15;11.35;;;;;;;1.12;100.00;103524.81;5075711;28;20503;-53
2022/02/26 08:30:36;;;;;;;20.45;12.30;;;;;;;1.27;100.00;103515.53;5074013;28;20072;-44
2022/02/26 08:33:04;;;;;;;16.40;12.57;;;;;;;1.43;100.00;103512.38;5075416;28;20049;-45
2022/02/26 08:35:33;;;;;;;21.13;12.27;;;;;;;1.44;100.00;103516.69;5075326;28;20053;-44
2022/02/26 08:38:01;;;;;;;15.90;12.65;;;;;;;1.38;100.00;103534.75;5075294;28;20511;-44
2022/02/26 08:40:29;;;;;;;16.63;12.25;;;;;;;1.70;100.00;103513.63;5074835;28;20376;-44
2022/02/26 08:42:57;;;;;;;18.42;12.65;;;;;;;1.76;100.00;103513.72;5074337;28;20040;-46
2022/02/26 08:45:26;;;;;;;15.80;11.45;;;;;;;1.76;100.00;103518.91;5075090;28;20549;-46
2022/02/26 08:47:55;;;;;;;16.88;12.30;;;;;;;1.86;100.00;103520.78;5075036;28;20048;-46
2022/02/26 08:50:23;;;;;;;18.05;12.38;;;;;;;2.04;100.00;103524.47;5074741;28;20372;-47
2022/02/26 08:52:51;;;;;;;18.48;12.77;;;;;;;2.05;100.00;103515.84;5074707;28;20049;-47
2022/02/26 08:55:19;;;;;;;15.32;11.93;;;;;;;2.07;100.00;103523.66;5074747;28;20053;-44
2022/02/26 08:57:47;;;;;;;15.93;11.77;;;;;;;1.86;100.00;103530.28;5073457;28;20052;-47
2022/02/26 09:00:16;;;;;;;16.92;12.10;;;;;;;1.98;100.00;103527.00;5074718;28;20064;-47
2022/02/26 09:02:46;;;;;;;16.40;11.98;;;;;;;2.30;100.00;103526.53;5074384;28;20055;-47
2022/02/26 09:05:15;;;;;;;16.70;12.50;;;;;;;2.54;100.00;103519.03;5074842;28;20129;-45
2022/02/26 09:07:43;;;;;;;17.48;13.07;;;;;;;2.80;100.00;103536.63;5074274;28;20454;-44
2022/02/26 09:10:12;;;;;;;16.55;13.23;;;;;;;2.71;100.00;103533.94;5074211;28;20045;-45
2022/02/26 09:12:41;;;;;;;19.08;12.65;;;;;;;2.61;100.00;103526.91;5074538;28;20040;-49
2022/02/26 09:15:11;;;;;;;19.60;13.68;;;;;;;3.07;100.00;103526.50;5074562;28;20106;-46
2022/02/26 09:17:39;;;;;;;21.50;13.15;;;;;;;3.30;100.00;103530.19;5074586;28;20105;-46
2022/02/26 09:20:12;;;;;;;17.77;12.70;;;;;;;3.44;100.00;103534.63;5074441;28;20040;-45
2022/02/26 09:22:41;;;;;;;21.23;13.45;;;;;;;3.52;100.00;103531.22;5074245;28;20140;-46
2022/02/26 09:25:11;;;;;;;17.80;12.30;;;;;;;3.77;100.00;103526.19;5073804;28;20352;-46
2022/02/26 09:27:40;;;;;;;18.88;13.52;;;;;;;3.70;100.00;103543.47;5074175;28;20069;-45
2022/02/26 09:30:09;;;;;;;14.75;11.23;;;;;;;3.66;100.00;103538.25;5074140;28;20055;-45
2022/02/26 09:32:37;;;;;;;15.48;10.88;;;;;;;3.94;100.00;103536.72;5074245;28;20052;-48
2022/02/26 09:35:07;;;;;;;14.73;10.68;;;;;;;3.97;100.00;103534.13;5074046;28;20153;-44
2022/02/26 09:37:36;;;;;;;19.33;11.45;;;;;;;4.36;100.00;103535.19;5074051;28;20044;-45
2022/02/26 09:40:06;;;;;;;15.55;11.30;;;;;;;4.49;100.00;103538.69;5074087;28;20056;-44
2022/02/26 09:42:36;;;;;;;13.57;10.20;;;;;;;4.55;100.00;103532.63;5073613;28;20060;-46
2022/02/26 09:45:05;;;;;;;15.23;10.65;;;;;;;4.91;100.00;103530.97;5073843;28;20567;-44
2022/02/26 09:47:33;;;;;;;16.55;11.45;;;;;;;5.17;100.00;103530.13;5073927;28;20076;-43
2022/02/26 09:50:03;;;;;;;13.35;10.07;;;;;;;5.39;100.00;103538.84;5073716;28;20376;-44
2022/02/26 09:52:31;;;;;;;16.70;11.10;;;;;;;5.25;100.00;103531.88;5073340;28;20060;-45
2022/02/26 09:55:01;;;;;;;14.90;10.10;;;;;;;5.62;100.00;103530.09;5073673;28;20046;-45
2022/02/26 09:57:30;;;;;;;22.70;10.27;;;;;;;5.96;100.00;103528.28;5073977;28;20052;-44
2022/02/26 09:59:59;;;;;;;16.20;9.80;;;;;;;6.31;100.00;103527.31;5073853;28;20474;-44
2022/02/26 10:02:31;;;;;;;19.23;11.35;;;;;;;6.39;100.00;103524.66;5073295;28;20043;-47
2022/02/26 10:05:00;;;;;;;;;;;;;;;6.93;100.00;103524.38;5073509;28;20507;-45
2022/02/26 10:07:32;;;;;;;17.23;9.95;;;;;;;6.97;100.00;103531.31;5073287;28;19920;-49
2022/02/26 10:10:08;;;;;;;19.02;10.27;;;;;;;7.28;100.00;103536.31;5073568;28;20514;-50
2022/02/26 10:12:37;;;;;;;20.98;9.75;;;;;;;7.73;100.00;103533.25;5073459;28;20498;-44
2022/02/26 10:15:08;;;;;;;15.00;8.43;;;;;;;8.11;98.56;103526.72;5073334;28;20498;-48
2022/02/26 10:17:38;;;;;;;16.27;8.02;;;;;;;8.29;94.03;103525.66;5073539;28;20495;-46
2022/02/26 10:20:12;;;;;;;12.15;7.22;;;;;;;8.28;93.25;103522.16;5073353;28;20399;-47
2022/02/26 10:22:50;;;;;;;15.43;7.85;;;;;;;8.86;91.19;103524.91;5073249;28;20478;-48
2022/02/26 10:25:22;;;;;;;17.40;7.45;;;;;;;8.91;90.48;103528.28;5073224;28;20044;-46
2022/02/26 10:27:53;;;;;;;18.10;7.18;;;;;;;8.93;88.40;103530.88;5073065;28;20045;-48
2022/02/26 10:30:26;;;;;;;12.45;6.40;;;;;;;9.19;87.27;103516.47;5072847;28;20048;-47
2022/02/26 10:33:09;;;;;;;14.80;6.78;;;;;;;9.33;87.33;103526.78;5072999;28;20063;-46
2022/02/26 10:35:41;;;;;;;22.95;7.15;;;;;;;9.20;85.92;103515.59;5073096;28;20062;-46
2022/02/26 10:38:14;;;;;;;17.52;5.97;;;;;;;9.67;84.35;103516.53;5073156;28;20049;-44
2022/02/26 10:40:55;;;;;;;17.90;6.22;;;;;;;10.11;84.10;103506.88;5072523;28;20053;-46
2022/02/26 10:43:41;;;;;;;15.38;4.63;;;;;;;10.66;77.07;103503.97;5072639;28;20040;-48
2022/02/26 10:46:20;;;;;;;15.43;3.30;;;;;;;10.68;76.29;103517.09;5072474;28;20041;-45
2022/02/26 10:48:50;;;;;;;12.65;3.90;;;;;;;10.74;75.64;103511.69;5072275;28;20044;-49
2022/02/26 10:51:20;;;;;;;14.40;4.35;;;;;;;10.47;74.66;103509.66;5072077;28;20045;-45
2022/02/26 10:53:50;;;;;;;14.65;4.75;;;;;;;10.80;75.60;103509.78;5072628;28;20391;-48
2022/02/26 10:56:20;;;;;;;14.82;3.35;;;;;;;11.27;72.72;103508.63;5072594;28;20415;-48
2022/02/26 10:58:49;;;;;;;10.35;3.22;;;;;;;10.91;73.24;103509.53;5072375;28;20526;-46
2022/02/26 11:01:17;;;;;;;11.32;2.75;;;;;;;11.45;69.16;103492.34;5072386;28;20495;-45
2022/02/26 11:03:45;;;;;;;14.65;4.10;;;;;;;11.97;67.34;103495.34;5072512;28;20544;-50
2022/02/26 11:06:15;;;;;;;12.02;4.20;;;;;;;11.76;67.71;103498.56;5072469;28;20491;-49
2022/02/26 11:08:44;;;;;;;14.85;4.30;;;;;;;11.91;66.87;103498.09;5072503;28;20495;-47
2022/02/26 11:11:12;;;;;;;10.80;4.13;;;;;;;12.24;64.49;103478.72;5072142;28;20045;-45
2022/02/26 11:13:45;;;;;;;16.17;4.25;;;;;;;12.37;65.80;103479.25;5072367;28;20097;-44
2022/02/26 11:16:14;;;;;;;15.52;3.95;;;;;;;12.26;62.82;103482.19;5072501;28;20373;-47
2022/02/26 11:18:46;;;;;;;10.90;3.47;;;;;;;12.56;63.57;103484.81;5072338;28;20044;-44
2022/02/26 11:21:16;;;;;;;11.73;3.60;;;;;;;11.96;66.11;103484.84;5072311;28;20049;-46
2022/02/26 11:23:47;;;;;;;13.93;3.65;;;;;;;11.53;65.99;103492.13;5072306;28;20114;-47